sensor_id;sensor_type;location;lat;lon;timestamp;P1;durP1;ratioP1;P2;durP2;ratioP2
58768;SDS011;44536;47.474;19.056;2022-12-16T09:06:35;20.10;;;12.63;;
58768;SDS011;44536;47.474;19.056;2022-12-16T09:14:08;25.17;;;13.32;;
58768;SDS011;44536;47.474;19.056;2022-12-16T09:17:30;25.92;;;14.48;;
58768;SDS011;44536;47.474;19.056;2022-12-16T09:20:53;24.15;;;13.62;;
58768;SDS011;44536;47.474;19.056;2022-12-16T09:24:15;25.80;;;14.82;;
58768;SDS011;44536;47.474;19.056;2022-12-16T09:27:37;25.77;;;13.85;;
58768;SDS011;44536;47.474;19.056;2022-12-16T09:30:59;22.67;;;13.25;;
58768;SDS011;44536;47.474;19.056;2022-12-16T09:34:20;23.50;;;12.07;;
58768;SDS011;44536;47.474;19.056;2022-12-16T09:37:45;22.92;;;12.73;;
58768;SDS011;44536;47.474;19.056;2022-12-16T09:45:33;23.58;;;12.90;;
58768;SDS011;44536;47.474;19.056;2022-12-16T09:49:35;26.60;;;13.73;;
58768;SDS011;44536;47.474;19.056;2022-12-16T09:53:24;23.87;;;15.85;;
58768;SDS011;44536;47.474;19.056;2022-12-16T09:56:47;23.10;;;13.10;;
58768;SDS011;44536;47.474;19.056;2022-12-16T10:00:19;22.08;;;14.32;;
58768;SDS011;44536;47.474;19.056;2022-12-16T10:03:46;22.95;;;13.80;;
58768;SDS011;44536;47.474;19.056;2022-12-16T10:07:17;24.70;;;12.23;;
58768;SDS011;44536;47.474;19.056;2022-12-16T10:10:45;23.58;;;13.20;;
58768;SDS011;44536;47.474;19.056;2022-12-16T10:14:19;23.30;;;13.68;;
58768;SDS011;44536;47.474;19.056;2022-12-16T10:17:50;27.27;;;16.25;;
58768;SDS011;44536;47.474;19.056;2022-12-16T10:21:13;30.67;;;13.93;;
58768;SDS011;44536;47.474;19.056;2022-12-16T10:24:47;33.85;;;15.30;;
58768;SDS011;44536;47.474;19.056;2022-12-16T10:31:37;24.77;;;13.73;;
58768;SDS011;44536;47.474;19.056;2022-12-16T10:34:59;28.52;;;16.00;;
58768;SDS011;44536;47.474;19.056;2022-12-16T10:38:37;21.00;;;12.55;;
58768;SDS011;44536;47.474;19.056;2022-12-16T10:42:03;27.05;;;14.98;;
58768;SDS011;44536;47.474;19.056;2022-12-16T10:45:28;24.65;;;13.68;;
58768;SDS011;44536;47.474;19.056;2022-12-16T10:48:54;30.52;;;17.42;;
58768;SDS011;44536;47.474;19.056;2022-12-16T10:52:16;28.85;;;14.85;;
58768;SDS011;44536;47.474;19.056;2022-12-16T10:59:05;30.00;;;15.48;;
58768;SDS011;44536;47.474;19.056;2022-12-16T11:02:39;29.48;;;15.00;;
58768;SDS011;44536;47.474;19.056;2022-12-16T11:06:02;34.67;;;16.77;;
58768;SDS011;44536;47.474;19.056;2022-12-16T11:09:24;28.80;;;15.75;;
58768;SDS011;44536;47.474;19.056;2022-12-16T11:13:00;28.65;;;14.95;;
58768;SDS011;44536;47.474;19.056;2022-12-16T11:17:10;36.80;;;16.77;;
58768;SDS011;44536;47.474;19.056;2022-12-16T11:20:36;29.55;;;14.65;;
58768;SDS011;44536;47.474;19.056;2022-12-16T11:24:03;25.35;;;12.82;;
58768;SDS011;44536;47.474;19.056;2022-12-16T11:27:33;27.37;;;14.27;;
58768;SDS011;44536;47.474;19.056;2022-12-16T11:31:09;28.70;;;15.13;;
58768;SDS011;44536;47.474;19.056;2022-12-16T11:34:34;28.80;;;14.93;;
58768;SDS011;44536;47.474;19.056;2022-12-16T11:37:56;29.10;;;14.55;;
58768;SDS011;44536;47.474;19.056;2022-12-16T11:41:41;27.13;;;14.57;;
58768;SDS011;44536;47.474;19.056;2022-12-16T11:45:05;25.95;;;14.93;;
58768;SDS011;44536;47.474;19.056;2022-12-16T11:48:43;26.27;;;14.50;;
58768;SDS011;44536;47.474;19.056;2022-12-16T11:52:21;28.38;;;15.73;;
58768;SDS011;44536;47.474;19.056;2022-12-16T11:55:43;30.85;;;17.00;;
58768;SDS011;44536;47.474;19.056;2022-12-16T12:02:48;29.23;;;16.08;;
58768;SDS011;44536;47.474;19.056;2022-12-16T12:10:13;33.40;;;18.87;;
58768;SDS011;44536;47.474;19.056;2022-12-16T12:13:50;29.55;;;17.60;;
58768;SDS011;44536;47.474;19.056;2022-12-16T12:17:20;32.33;;;16.75;;
58768;SDS011;44536;47.474;19.056;2022-12-16T12:21:08;36.22;;;17.27;;
58768;SDS011;44536;47.474;19.056;2022-12-16T12:39:46;28.38;;;15.50;;
58768;SDS011;44536;47.474;19.056;2022-12-16T12:47:01;32.75;;;17.75;;
58768;SDS011;44536;47.474;19.056;2022-12-16T12:50:31;29.92;;;15.70;;
58768;SDS011;44536;47.474;19.056;2022-12-16T12:57:40;27.60;;;15.82;;
58768;SDS011;44536;47.474;19.056;2022-12-16T13:01:05;37.72;;;19.48;;
58768;SDS011;44536;47.474;19.056;2022-12-16T13:04:29;34.10;;;17.23;;
58768;SDS011;44536;47.474;19.056;2022-12-16T13:07:52;36.28;;;17.62;;
58768;SDS011;44536;47.474;19.056;2022-12-16T13:11:33;30.45;;;16.20;;
58768;SDS011;44536;47.474;19.056;2022-12-16T13:18:20;29.55;;;15.80;;
58768;SDS011;44536;47.474;19.056;2022-12-16T13:21:46;28.50;;;13.30;;
58768;SDS011;44536;47.474;19.056;2022-12-16T13:25:24;28.52;;;16.30;;
58768;SDS011;44536;47.474;19.056;2022-12-16T13:29:13;28.30;;;15.57;;
58768;SDS011;44536;47.474;19.056;2022-12-16T13:32:38;33.25;;;16.60;;
58768;SDS011;44536;47.474;19.056;2022-12-16T13:35:59;25.85;;;13.15;;
58768;SDS011;44536;47.474;19.056;2022-12-16T13:39:24;22.83;;;14.05;;
58768;SDS011;44536;47.474;19.056;2022-12-16T13:42:47;20.73;;;11.05;;
58768;SDS011;44536;47.474;19.056;2022-12-16T13:46:12;21.75;;;11.60;;
58768;SDS011;44536;47.474;19.056;2022-12-16T13:52:58;23.38;;;13.73;;
58768;SDS011;44536;47.474;19.056;2022-12-16T13:56:24;32.20;;;15.68;;
58768;SDS011;44536;47.474;19.056;2022-12-16T13:59:51;31.40;;;14.30;;
58768;SDS011;44536;47.474;19.056;2022-12-16T14:03:26;25.23;;;13.73;;
58768;SDS011;44536;47.474;19.056;2022-12-16T14:06:58;21.87;;;13.48;;
58768;SDS011;44536;47.474;19.056;2022-12-16T14:17:33;26.85;;;13.23;;
58768;SDS011;44536;47.474;19.056;2022-12-16T14:21:01;26.25;;;13.32;;
58768;SDS011;44536;47.474;19.056;2022-12-16T14:24:25;22.50;;;14.90;;
58768;SDS011;44536;47.474;19.056;2022-12-16T14:27:47;25.45;;;13.65;;
58768;SDS011;44536;47.474;19.056;2022-12-16T14:31:14;26.87;;;14.15;;
58768;SDS011;44536;47.474;19.056;2022-12-16T14:34:39;20.33;;;11.65;;
58768;SDS011;44536;47.474;19.056;2022-12-16T14:38:20;22.83;;;12.57;;
58768;SDS011;44536;47.474;19.056;2022-12-16T14:41:41;17.92;;;11.32;;
58768;SDS011;44536;47.474;19.056;2022-12-16T14:48:54;22.77;;;12.53;;
58768;SDS011;44536;47.474;19.056;2022-12-16T14:55:37;23.92;;;14.25;;
58768;SDS011;44536;47.474;19.056;2022-12-16T14:59:17;24.35;;;12.95;;
58768;SDS011;44536;47.474;19.056;2022-12-16T15:02:39;21.92;;;11.60;;
58768;SDS011;44536;47.474;19.056;2022-12-16T15:06:07;19.90;;;12.15;;
58768;SDS011;44536;47.474;19.056;2022-12-16T15:09:44;20.98;;;11.77;;
58768;SDS011;44536;47.474;19.056;2022-12-16T15:13:10;19.87;;;11.32;;
58768;SDS011;44536;47.474;19.056;2022-12-16T15:16:36;22.00;;;12.00;;
58768;SDS011;44536;47.474;19.056;2022-12-16T15:19:58;17.23;;;10.52;;
58768;SDS011;44536;47.474;19.056;2022-12-16T15:23:21;15.52;;;7.50;;
58768;SDS011;44536;47.474;19.056;2022-12-16T15:26:42;16.10;;;9.30;;
58768;SDS011;44536;47.474;19.056;2022-12-16T15:34:16;12.05;;;6.28;;
58768;SDS011;44536;47.474;19.056;2022-12-16T15:37:38;12.40;;;7.55;;
58768;SDS011;44536;47.474;19.056;2022-12-16T15:41:05;12.05;;;8.27;;
58768;SDS011;44536;47.474;19.056;2022-12-16T15:44:44;11.07;;;7.68;;
58768;SDS011;44536;47.474;19.056;2022-12-16T15:48:11;12.45;;;8.05;;
58768;SDS011;44536;47.474;19.056;2022-12-16T15:51:42;15.65;;;7.35;;
58768;SDS011;44536;47.474;19.056;2022-12-16T15:55:26;12.02;;;7.03;;
58768;SDS011;44536;47.474;19.056;2022-12-16T15:59:53;10.98;;;7.70;;
58768;SDS011;44536;47.474;19.056;2022-12-16T16:02:55;15.25;;;8.13;;
58768;SDS011;44536;47.474;19.056;2022-12-16T16:06:17;15.52;;;7.18;;
58768;SDS011;44536;47.474;19.056;2022-12-16T16:09:43;11.93;;;7.05;;
58768;SDS011;44536;47.474;19.056;2022-12-16T16:13:04;16.52;;;7.78;;
58768;SDS011;44536;47.474;19.056;2022-12-16T16:16:25;11.00;;;6.95;;
58768;SDS011;44536;47.474;19.056;2022-12-16T16:19:46;11.38;;;6.30;;
58768;SDS011;44536;47.474;19.056;2022-12-16T16:23:08;11.63;;;7.95;;
58768;SDS011;44536;47.474;19.056;2022-12-16T16:26:30;14.65;;;6.62;;
58768;SDS011;44536;47.474;19.056;2022-12-16T16:29:51;13.68;;;7.82;;
58768;SDS011;44536;47.474;19.056;2022-12-16T16:33:12;12.30;;;7.05;;
58768;SDS011;44536;47.474;19.056;2022-12-16T16:36:34;15.90;;;8.40;;
58768;SDS011;44536;47.474;19.056;2022-12-16T16:39:55;14.27;;;9.25;;
58768;SDS011;44536;47.474;19.056;2022-12-16T16:43:16;12.93;;;6.97;;
58768;SDS011;44536;47.474;19.056;2022-12-16T16:46:42;11.73;;;7.18;;
58768;SDS011;44536;47.474;19.056;2022-12-16T16:50:17;11.85;;;7.05;;
58768;SDS011;44536;47.474;19.056;2022-12-16T16:53:37;12.48;;;6.62;;
58768;SDS011;44536;47.474;19.056;2022-12-16T16:56:59;12.75;;;6.62;;
58768;SDS011;44536;47.474;19.056;2022-12-16T17:00:21;11.00;;;5.97;;
58768;SDS011;44536;47.474;19.056;2022-12-16T17:03:43;9.90;;;5.60;;
58768;SDS011;44536;47.474;19.056;2022-12-16T17:07:04;9.82;;;6.40;;
58768;SDS011;44536;47.474;19.056;2022-12-16T17:10:25;10.02;;;5.70;;
58768;SDS011;44536;47.474;19.056;2022-12-16T17:13:46;12.68;;;6.78;;
58768;SDS011;44536;47.474;19.056;2022-12-16T17:17:07;11.65;;;7.10;;
58768;SDS011;44536;47.474;19.056;2022-12-16T17:20:29;12.02;;;6.85;;
58768;SDS011;44536;47.474;19.056;2022-12-16T17:23:49;12.15;;;5.68;;
58768;SDS011;44536;47.474;19.056;2022-12-16T17:27:19;12.55;;;6.22;;
58768;SDS011;44536;47.474;19.056;2022-12-16T17:30:43;9.85;;;4.68;;
58768;SDS011;44536;47.474;19.056;2022-12-16T17:34:04;11.80;;;5.85;;
58768;SDS011;44536;47.474;19.056;2022-12-16T17:37:25;11.93;;;5.93;;
58768;SDS011;44536;47.474;19.056;2022-12-16T17:40:50;13.38;;;6.72;;
58768;SDS011;44536;47.474;19.056;2022-12-16T17:44:11;13.05;;;6.43;;
58768;SDS011;44536;47.474;19.056;2022-12-16T17:47:33;13.88;;;7.10;;
58768;SDS011;44536;47.474;19.056;2022-12-16T17:50:53;16.48;;;7.90;;
58768;SDS011;44536;47.474;19.056;2022-12-16T17:54:15;14.98;;;8.02;;
58768;SDS011;44536;47.474;19.056;2022-12-16T17:57:35;15.77;;;7.53;;
58768;SDS011;44536;47.474;19.056;2022-12-16T18:01:01;21.17;;;9.35;;
58768;SDS011;44536;47.474;19.056;2022-12-16T18:04:26;18.48;;;7.85;;
58768;SDS011;44536;47.474;19.056;2022-12-16T18:07:47;17.30;;;10.00;;
58768;SDS011;44536;47.474;19.056;2022-12-16T18:11:09;20.33;;;8.30;;
58768;SDS011;44536;47.474;19.056;2022-12-16T18:14:30;20.75;;;8.70;;
58768;SDS011;44536;47.474;19.056;2022-12-16T18:17:51;19.50;;;9.52;;
58768;SDS011;44536;47.474;19.056;2022-12-16T18:21:12;27.70;;;11.43;;
58768;SDS011;44536;47.474;19.056;2022-12-16T18:24:34;22.10;;;10.00;;
58768;SDS011;44536;47.474;19.056;2022-12-16T18:27:56;24.60;;;10.15;;
58768;SDS011;44536;47.474;19.056;2022-12-16T18:31:18;24.63;;;11.27;;
58768;SDS011;44536;47.474;19.056;2022-12-16T18:34:38;25.45;;;13.00;;
58768;SDS011;44536;47.474;19.056;2022-12-16T18:37:59;26.05;;;12.98;;
58768;SDS011;44536;47.474;19.056;2022-12-16T18:41:20;23.70;;;11.73;;
58768;SDS011;44536;47.474;19.056;2022-12-16T18:44:42;25.88;;;13.27;;
58768;SDS011;44536;47.474;19.056;2022-12-16T18:48:03;20.08;;;11.40;;
58768;SDS011;44536;47.474;19.056;2022-12-16T18:51:24;21.37;;;11.63;;
58768;SDS011;44536;47.474;19.056;2022-12-16T18:54:44;19.08;;;10.27;;
58768;SDS011;44536;47.474;19.056;2022-12-16T18:58:05;25.12;;;11.12;;
58768;SDS011;44536;47.474;19.056;2022-12-16T19:01:46;24.17;;;11.35;;
58768;SDS011;44536;47.474;19.056;2022-12-16T19:05:07;20.98;;;12.63;;
58768;SDS011;44536;47.474;19.056;2022-12-16T19:08:28;22.13;;;12.77;;
58768;SDS011;44536;47.474;19.056;2022-12-16T19:11:50;26.77;;;11.50;;
58768;SDS011;44536;47.474;19.056;2022-12-16T19:15:10;23.17;;;11.50;;
58768;SDS011;44536;47.474;19.056;2022-12-16T19:18:31;19.42;;;10.82;;
58768;SDS011;44536;47.474;19.056;2022-12-16T19:21:56;27.50;;;11.73;;
58768;SDS011;44536;47.474;19.056;2022-12-16T19:25:20;23.87;;;10.93;;
58768;SDS011;44536;47.474;19.056;2022-12-16T19:28:41;26.12;;;11.32;;
58768;SDS011;44536;47.474;19.056;2022-12-16T19:32:02;28.48;;;11.32;;
58768;SDS011;44536;47.474;19.056;2022-12-16T19:35:23;26.67;;;12.93;;
58768;SDS011;44536;47.474;19.056;2022-12-16T19:38:44;23.45;;;13.35;;
58768;SDS011;44536;47.474;19.056;2022-12-16T19:42:05;19.52;;;12.37;;
58768;SDS011;44536;47.474;19.056;2022-12-16T19:45:26;19.83;;;11.45;;
58768;SDS011;44536;47.474;19.056;2022-12-16T19:48:47;25.77;;;12.35;;
58768;SDS011;44536;47.474;19.056;2022-12-16T19:52:09;22.65;;;10.32;;
58768;SDS011;44536;47.474;19.056;2022-12-16T19:55:30;22.67;;;11.15;;
58768;SDS011;44536;47.474;19.056;2022-12-16T19:58:54;18.00;;;12.35;;
58768;SDS011;44536;47.474;19.056;2022-12-16T20:02:15;20.60;;;13.18;;
58768;SDS011;44536;47.474;19.056;2022-12-16T20:05:36;21.37;;;11.15;;
58768;SDS011;44536;47.474;19.056;2022-12-16T20:08:56;22.80;;;12.13;;
58768;SDS011;44536;47.474;19.056;2022-12-16T20:12:34;23.02;;;11.82;;
58768;SDS011;44536;47.474;19.056;2022-12-16T20:16:00;26.75;;;14.00;;
58768;SDS011;44536;47.474;19.056;2022-12-16T20:19:26;21.42;;;10.75;;
58768;SDS011;44536;47.474;19.056;2022-12-16T20:22:46;23.98;;;12.82;;
58768;SDS011;44536;47.474;19.056;2022-12-16T20:26:08;29.12;;;13.05;;
58768;SDS011;44536;47.474;19.056;2022-12-16T20:29:28;30.65;;;15.20;;
58768;SDS011;44536;47.474;19.056;2022-12-16T20:32:49;30.60;;;16.15;;
58768;SDS011;44536;47.474;19.056;2022-12-16T20:36:10;24.98;;;14.05;;
58768;SDS011;44536;47.474;19.056;2022-12-16T20:39:31;28.15;;;14.95;;
58768;SDS011;44536;47.474;19.056;2022-12-16T20:42:57;31.77;;;14.95;;
58768;SDS011;44536;47.474;19.056;2022-12-16T20:46:18;30.73;;;17.75;;
58768;SDS011;44536;47.474;19.056;2022-12-16T20:49:39;37.22;;;18.23;;
58768;SDS011;44536;47.474;19.056;2022-12-16T20:53:00;37.88;;;16.42;;
58768;SDS011;44536;47.474;19.056;2022-12-16T20:56:21;36.60;;;17.35;;
58768;SDS011;44536;47.474;19.056;2022-12-16T20:59:42;38.63;;;18.20;;
58768;SDS011;44536;47.474;19.056;2022-12-16T21:03:06;34.42;;;17.70;;
58768;SDS011;44536;47.474;19.056;2022-12-16T21:06:28;39.60;;;17.60;;
58768;SDS011;44536;47.474;19.056;2022-12-16T21:09:49;36.00;;;15.60;;
58768;SDS011;44536;47.474;19.056;2022-12-16T21:13:12;33.63;;;15.13;;
58768;SDS011;44536;47.474;19.056;2022-12-16T21:19:57;42.22;;;20.98;;
58768;SDS011;44536;47.474;19.056;2022-12-16T21:23:17;36.40;;;20.23;;
58768;SDS011;44536;47.474;19.056;2022-12-16T21:26:39;40.12;;;17.33;;
58768;SDS011;44536;47.474;19.056;2022-12-16T21:30:00;40.08;;;20.58;;
58768;SDS011;44536;47.474;19.056;2022-12-16T21:33:21;45.83;;;21.73;;
58768;SDS011;44536;47.474;19.056;2022-12-16T21:36:42;48.08;;;23.25;;
58768;SDS011;44536;47.474;19.056;2022-12-16T21:40:03;40.05;;;21.12;;
58768;SDS011;44536;47.474;19.056;2022-12-16T21:43:25;42.22;;;19.48;;
58768;SDS011;44536;47.474;19.056;2022-12-16T21:46:46;38.90;;;18.98;;
58768;SDS011;44536;47.474;19.056;2022-12-16T21:50:07;44.40;;;20.70;;
58768;SDS011;44536;47.474;19.056;2022-12-16T21:53:29;41.10;;;19.08;;
58768;SDS011;44536;47.474;19.056;2022-12-16T21:56:50;39.97;;;19.45;;
58768;SDS011;44536;47.474;19.056;2022-12-16T22:00:11;34.25;;;17.58;;
58768;SDS011;44536;47.474;19.056;2022-12-16T22:03:33;49.10;;;23.40;;
58768;SDS011;44536;47.474;19.056;2022-12-16T22:06:54;43.75;;;19.80;;
58768;SDS011;44536;47.474;19.056;2022-12-16T22:10:15;36.95;;;18.23;;
58768;SDS011;44536;47.474;19.056;2022-12-16T22:13:36;43.85;;;22.70;;
58768;SDS011;44536;47.474;19.056;2022-12-16T22:16:57;51.83;;;23.80;;
58768;SDS011;44536;47.474;19.056;2022-12-16T22:20:18;39.47;;;19.73;;
58768;SDS011;44536;47.474;19.056;2022-12-16T22:23:39;44.65;;;22.75;;
58768;SDS011;44536;47.474;19.056;2022-12-16T22:27:00;39.45;;;23.02;;
58768;SDS011;44536;47.474;19.056;2022-12-16T22:30:21;46.80;;;26.12;;
58768;SDS011;44536;47.474;19.056;2022-12-16T22:33:42;49.97;;;22.25;;
58768;SDS011;44536;47.474;19.056;2022-12-16T22:37:04;48.78;;;24.67;;
58768;SDS011;44536;47.474;19.056;2022-12-16T22:40:24;48.05;;;22.98;;
58768;SDS011;44536;47.474;19.056;2022-12-16T22:43:45;39.10;;;18.85;;
58768;SDS011;44536;47.474;19.056;2022-12-16T22:47:06;46.55;;;19.92;;
58768;SDS011;44536;47.474;19.056;2022-12-16T22:50:27;44.78;;;18.70;;
58768;SDS011;44536;47.474;19.056;2022-12-16T22:53:48;40.78;;;20.40;;
58768;SDS011;44536;47.474;19.056;2022-12-16T22:57:09;44.83;;;20.73;;
58768;SDS011;44536;47.474;19.056;2022-12-16T23:00:30;53.67;;;23.80;;
58768;SDS011;44536;47.474;19.056;2022-12-16T23:03:51;45.42;;;24.30;;
58768;SDS011;44536;47.474;19.056;2022-12-16T23:07:12;55.03;;;26.08;;
58768;SDS011;44536;47.474;19.056;2022-12-16T23:10:57;48.90;;;25.12;;
58768;SDS011;44536;47.474;19.056;2022-12-16T23:14:19;52.05;;;23.80;;
58768;SDS011;44536;47.474;19.056;2022-12-16T23:18:00;49.65;;;23.00;;
58768;SDS011;44536;47.474;19.056;2022-12-16T23:21:21;41.13;;;24.90;;
58768;SDS011;44536;47.474;19.056;2022-12-16T23:24:42;42.95;;;20.67;;
58768;SDS011;44536;47.474;19.056;2022-12-16T23:28:03;43.80;;;20.33;;
58768;SDS011;44536;47.474;19.056;2022-12-16T23:31:24;45.28;;;25.02;;
58768;SDS011;44536;47.474;19.056;2022-12-16T23:34:45;49.65;;;21.70;;
58768;SDS011;44536;47.474;19.056;2022-12-16T23:38:06;51.30;;;24.05;;
58768;SDS011;44536;47.474;19.056;2022-12-16T23:41:27;50.55;;;24.45;;
58768;SDS011;44536;47.474;19.056;2022-12-16T23:44:48;45.25;;;22.62;;
58768;SDS011;44536;47.474;19.056;2022-12-16T23:48:10;50.58;;;23.75;;
58768;SDS011;44536;47.474;19.056;2022-12-16T23:51:31;44.60;;;20.65;;
58768;SDS011;44536;47.474;19.056;2022-12-16T23:54:52;42.15;;;21.10;;
58768;SDS011;44536;47.474;19.056;2022-12-16T23:58:13;50.20;;;25.85;;
